Terminal Aerodrome Forecast
Issued by NWS

Current Version | Previous Version | Text Only | Print | Product List | Glossary On
Versions: 1 2 3 4 5 6 7 8 9 10 11 12 13 14 15 16 17 18
000
FTUS42 KTBW 222349
TAFPGD
TAF
KPGD 222349Z 2300/2324 12011KT P6SM SCT040
     FM230200 13004KT P6SM FEW030 BKN250
     FM231400 17011KT P6SM BKN050
     FM231700 23012KT P6SM BKN050 OVC100=

USA.gov is the U.S. government's official web portal to all federal, state and local government web resources and services.